Flight Track Log - Related Links

Times and Time Zones

All times are in EST time to prevent confusion due to time zone crossing. See the RPA3497 flight status page for this flight to view local times or setup timezone preferences in your user account.

Time Position Orientation Groundspeed Altitude Reporting Facility
EST Latitude Longitude Course Direction KTS MPH feet Rate Location/Type
Sun 12:51:11 PM 44.8369 -68.8844 222° Southwest 166 191 3,200  Level Boston Center
Sun 12:52:00 PM 44.6000 -69.0886 270° West  Level FlightAware Approximate
Sun 12:52:12 PM 44.7942 -68.9469 226° Southwest 219 252 6,600  Level Boston Center
Sun 12:53:00 PM 44.5344 -69.1766 220° Southwest  Level FlightAware Approximate
Sun 12:53:15 PM 44.7472 -69.0056 222° Southwest 223 257 9,900  Level Boston Center
Sun 12:54:00 PM 44.4659 -69.2655 226° Southwest  Level FlightAware Approximate
Sun 12:54:15 PM 44.6928 -69.0739 222° Southwest 247 284 12,200  Level Boston Center
Sun 12:55:00 PM 44.4004 -69.3590 226° Southwest  Level FlightAware Approximate
Sun 12:55:16 PM 44.6311 -69.1517 222° Southwest 285 328 15,400  Level Boston Center
Sun 12:56:00 PM 44.3368 -69.4417 222° Southwest  Level FlightAware Approximate
Sun 12:56:17 PM 44.5664 -69.2311 221° Southwest 302 348 18,600  Level Boston Center
Sun 12:57:19 PM 44.5008 -69.3144 222° Southwest 312 359 21,200 2,508 Climbing Boston Center
Sun 12:58:19 PM 44.4369 -69.4044 225° Southwest 318 366 23,700 2,430 Climbing Boston Center
Sun 12:59:20 PM 44.3733 -69.4953 226° Southwest 318 366 26,100 2,081 Climbing Boston Center
Sun 01:00:23 PM 44.3075 -69.5881 225° Southwest 330 380 28,000 1,597 Climbing Boston Center
Sun 01:01:24 PM 44.2411 -69.6831 226° Southwest 337 388 29,400 992 Climbing Boston Center
Sun 01:02:24 PM 44.1711 -69.7808 225° Southwest 349 402 30,000 298 Climbing Boston Center
Sun 01:03:25 PM 44.0972 -69.8858 226° Southwest 374 430 30,000  Level Boston Center
Sun 01:04:26 PM 44.0242 -69.9858 225° Southwest 372 428 30,000  Level Boston Center
Sun 01:05:26 PM 43.9533 -70.0889 226° Southwest 369 425 30,000  Level Boston Center
Sun 01:06:28 PM 43.8794 -70.1911 225° Southwest 373 429 30,000  Level Boston Center
Sun 01:07:29 PM 43.8047 -70.2942 225° Southwest 375 432 30,000  Level Boston Center
Sun 01:08:29 PM 43.7167 -70.4106 224° Southwest 363 418 30,000 290 Level Boston Center
Sun 01:09:33 PM 43.6450 -70.5131 226° Southwest 363 418 30,600 774 Climbing Boston Center
Sun 01:10:33 PM 43.5744 -70.6097 225° Southwest 357 411 31,600 700 Climbing Boston Center
Sun 01:11:33 PM 43.5039 -70.7069 225° Southwest 355 409 32,000 198 Climbing Boston Center
Sun 01:12:34 PM 43.4308 -70.8044 224° Southwest 363 418 32,000  Level Boston Center
Sun 01:13:35 PM 43.3608 -70.8969 224° Southwest 361 415 32,000  Level Boston Center
Sun 01:14:36 PM 43.2897 -70.9939 225° Southwest 361 415 32,000  Level Boston Center
Sun 01:15:39 PM 43.2211 -71.0869 225° Southwest 356 410 32,000  Level Boston Center
Sun 01:16:40 PM 43.1525 -71.1781 224° Southwest 352 405 32,000  Level Boston Center
Sun 01:17:40 PM 43.0819 -71.2733 225° Southwest 354 407 32,000  Level Boston Center
Sun 01:18:41 PM 43.0128 -71.3653 224° Southwest 351 404 32,000  Level Boston Center
Sun 01:19:41 PM 42.9303 -71.4750 224° Southwest 347 399 32,000  Level Boston Center
Sun 01:20:45 PM 42.8761 -71.5483 225° Southwest 347 399 32,000  Level Boston Center
Sun 01:21:45 PM 42.7933 -71.6586 224° Southwest 345 397 32,000  Level Boston Center
Sun 01:22:46 PM 42.7256 -71.7467 224° Southwest 336 387 32,000  Level Boston Center
Sun 01:23:47 PM 42.6586 -71.8336 224° Southwest 332 382 32,000  Level Boston Center
Sun 01:24:47 PM 42.5936 -71.9208 225° Southwest 328 377 32,000 -339 Level Boston Center
Sun 01:25:51 PM 42.5278 -72.0053 223° Southwest 325 374 31,300 -816 Descending Boston Center
Sun 01:26:52 PM 42.4617 -72.0906 224° Southwest 325 374 30,300 -992 Descending Boston Center
Sun 01:27:52 PM 42.3947 -72.1775 224° Southwest 329 379 29,300 -1,000 Descending Boston Center
Sun 01:28:52 PM 42.3281 -72.2647 224° Southwest 331 381 28,300 -629 Descending Boston Center
Sun 01:29:56 PM 42.2617 -72.3503 224° Southwest 330 380 28,000 -144 Descending Boston Center
Sun 01:30:57 PM 42.1942 -72.4364 223° Southwest 330 380 28,000  Level Boston Center
Sun 01:31:57 PM 42.1281 -72.5208 223° Southwest 329 379 28,000  Level Boston Center
Sun 01:32:57 PM 42.0625 -72.6047 224° Southwest 327 376 28,000  Level Boston Center
Sun 01:34:01 PM 41.9828 -72.7061 223° Southwest 327 376 28,000  Level Boston Center
Sun 01:35:01 PM 41.9175 -72.7892 223° Southwest 326 375 28,000  Level Boston Center
Sun 01:36:02 PM 41.8514 -72.8722 223° Southwest 326 375 28,000  Level Boston Center
Sun 01:37:02 PM 41.7861 -72.9531 223° Southwest 324 373 28,000  Level Boston Center
Sun 01:38:05 PM 41.7211 -73.0356 223° Southwest 322 371 28,000  Level Boston Center
Sun 01:39:06 PM 41.6558 -73.1186 224° Southwest 322 371 28,000  Level Boston Center
Sun 01:40:07 PM 41.5911 -73.2003 223° Southwest 322 371 28,000  Level Boston Center
Sun 01:41:07 PM 41.5206 -73.2861 222° Southwest 321 369 28,000  Level Boston Center
Sun 01:42:07 PM 41.4553 -73.3683 223° Southwest 322 371 28,000  Level Boston Center
Sun 01:43:11 PM 41.3889 -73.4475 222° Southwest 322 371 28,000  Level Boston Center
Sun 01:44:11 PM 41.3242 -73.5294 224° Southwest 323 372 28,000  Level Boston Center
Sun 01:45:13 PM 41.2617 -73.6136 225° Southwest 323 372 28,000 49 Level Boston Center
Sun 01:46:14 PM 41.2086 -73.7042 232° Southwest 316 364 28,100  Climbing Boston Center
Sun 01:46:47 PM 41.1756 -73.7675 235° Southwest 321 369 28,000 -65 Descending New York Center
Sun 01:47:47 PM 41.1214 -73.8558 231° Southwest 321 369 28,000  Level New York Center
Sun 01:48:47 PM 41.0669 -73.9469 232° Southwest 321 369 28,000  Level New York Center
Sun 01:49:47 PM 41.0122 -74.0353 231° Southwest 316 364 28,000  Level New York Center
Sun 01:50:47 PM 40.9597 -74.1261 233° Southwest 316 364 28,000  Level New York Center
Sun 01:51:47 PM 40.8944 -74.2272 230° Southwest 322 371 28,000  Level New York Center
Sun 01:52:47 PM 40.8417 -74.3178 232° Southwest 322 371 28,000  Level New York Center
Sun 01:53:47 PM 40.7847 -74.4081 230° Southwest 322 371 28,000  Level New York Center
Sun 01:54:47 PM 40.7319 -74.4981 232° Southwest 322 371 28,000  Level New York Center
Sun 01:55:47 PM 40.6769 -74.5908 232° Southwest 322 371 28,000  Level New York Center
Sun 01:56:47 PM 40.6219 -74.6808 231° Southwest 322 371 28,000  Level New York Center
Sun 01:57:47 PM 40.5625 -74.7731 230° Southwest 322 371 28,000 -200 Level New York Center
Sun 01:58:47 PM 40.5011 -74.8597 227° Southwest 322 371 27,600 -700 Descending New York Center
Sun 01:59:47 PM 40.4419 -74.9461 228° Southwest 322 371 26,600 -1,000 Descending New York Center
Sun 02:00:47 PM 40.3806 -75.0294 226° Southwest 322 371 25,600 -1,000 Descending New York Center
Sun 02:01:47 PM 40.3192 -75.1128 226° Southwest 322 371 24,600 -1,000 Descending New York Center
Sun 02:02:47 PM 40.2617 -75.1989 229° Southwest 322 371 23,600 -1,000 Descending New York Center
Sun 02:03:47 PM 40.2047 -75.2769 226° Southwest 322 371 22,600 -800 Descending New York Center
Sun 02:04:47 PM 40.1517 -75.3522 227° Southwest 307 353 22,000 -300 Descending New York Center
Sun 02:05:47 PM 40.0967 -75.4300 227° Southwest 302 348 22,000 -50 Level New York Center
Sun 02:06:47 PM 40.0414 -75.5075 227° Southwest 302 348 21,900 -450 Descending New York Center
Sun 02:07:47 PM 39.9883 -75.5800 226° Southwest 302 348 21,100 -1,150 Descending New York Center
Sun 02:08:47 PM 39.9414 -75.6581 232° Southwest 296 341 19,600 -1,550 Descending New York Center
Sun 02:09:47 PM 39.8881 -75.7381 229° Southwest 291 335 18,000 -1,300 Descending New York Center
Sun 02:10:47 PM 39.8433 -75.8081 230° Southwest 277 319 17,000 -500 Descending New York Center
Sun 02:11:47 PM 39.7986 -75.8778 230° Southwest 266 306 17,000 -250 Level New York Center
Sun 02:12:47 PM 39.7581 -75.9450 232° Southwest 266 306 16,500 -2,500 Descending New York Center
Sun 02:13:47 PM 39.7044 -76.0275 230° Southwest 266 306 12,000 -1,050 Descending New York Center
Sun 02:14:47 PM 39.6575 -76.0967 229° Southwest 273 314 14,400 700 Climbing New York Center
Sun 02:15:47 PM 39.6103 -76.1739 232° Southwest 273 314 13,400 -1,050 Descending New York Center
Sun 02:16:47 PM 39.5653 -76.2458 231° Southwest 267 307 12,300 -652 Descending New York Center
Sun 02:18:05 PM 39.5000 -76.3333 226° Southwest 284 327 11,900 -130 Descending Potomac TRACON
Sun 02:19:05 PM 39.4500 -76.4167 232° Southwest 280 322 12,000 50 Climbing Potomac TRACON
Sun 02:20:05 PM 39.3833 -76.4833 218° Southwest 284 327 12,000  Level Potomac TRACON
Sun 02:21:06 PM 39.3167 -76.5333 210° Southwest 303 349 12,000 -248 Level Potomac TRACON
Sun 02:22:06 PM 39.2500 -76.6000 218° Southwest 304 350 11,500 -992 Descending Potomac TRACON
Sun 02:23:07 PM 39.1667 -76.6667 212° Southwest 306 352 10,000 -744 Descending Potomac TRACON
Sun 02:24:07 PM 39.1333 -76.7500 243° Southwest 288 331 10,000  Level Potomac TRACON
Sun 02:25:07 PM 39.1167 -76.8500 258° West 239 275 10,000 -1,041 Level Potomac TRACON
Sun 02:26:08 PM 39.0833 -76.9167 237° Southwest 208 239 7,900 -2,281 Descending Potomac TRACON
Sun 02:27:08 PM 39.0667 -76.9833 252° West 199 229 5,400 -1,500 Descending Potomac TRACON
Sun 02:28:08 PM 39.0500 -77.0500 252° West 214 246 4,900 -550 Descending Potomac TRACON
Sun 02:29:08 PM 39.0333 -77.1167 252° West 161 185 4,300 -950 Descending Potomac TRACON
Sun 02:30:08 PM 39.0167 -77.1500 237° Southwest 162 186 3,000 -900 Descending Potomac TRACON
Sun 02:31:08 PM 38.9667 -77.1333 165° South 153 176 2,500 -524 Descending Potomac TRACON
Sun 02:32:14 PM 38.9333 -77.1167 159° South 161 185 1,900 -645 Descending Potomac TRACON
Sun 02:33:09 PM 38.9000 -77.0833 142° Southeast 142 163 1,200 -730 Descending Potomac TRACON
Sun 02:34:09 PM 38.8833 -77.0500 123° Southeast 126 145 500 -700 Descending Potomac TRACON

Login

Don't have an account? Register now (free) for customized features, flight alerts, and more!